sensor_id;sensor_type;location;lat;lon;timestamp;P1;durP1;ratioP1;P2;durP2;ratioP2
58621;SDS011;44389;51.578;5.456;2022-12-07T00:01:32;129.70;;;65.03;;
58621;SDS011;44389;51.578;5.456;2022-12-07T00:03:59;118.10;;;62.00;;
58621;SDS011;44389;51.578;5.456;2022-12-07T00:06:30;122.10;;;62.15;;
58621;SDS011;44389;51.578;5.456;2022-12-07T00:08:56;138.07;;;68.07;;
58621;SDS011;44389;51.578;5.456;2022-12-07T00:11:22;131.73;;;67.65;;
58621;SDS011;44389;51.578;5.456;2022-12-07T00:13:52;129.25;;;64.40;;
58621;SDS011;44389;51.578;5.456;2022-12-07T00:16:20;128.10;;;64.15;;
58621;SDS011;44389;51.578;5.456;2022-12-07T00:18:46;136.93;;;65.57;;
58621;SDS011;44389;51.578;5.456;2022-12-07T00:21:13;142.18;;;70.18;;
58621;SDS011;44389;51.578;5.456;2022-12-07T00:23:44;142.18;;;72.43;;
58621;SDS011;44389;51.578;5.456;2022-12-07T00:26:11;148.85;;;73.03;;
58621;SDS011;44389;51.578;5.456;2022-12-07T00:28:45;145.55;;;74.28;;
58621;SDS011;44389;51.578;5.456;2022-12-07T00:31:16;147.15;;;74.25;;
58621;SDS011;44389;51.578;5.456;2022-12-07T00:33:42;158.95;;;77.40;;
58621;SDS011;44389;51.578;5.456;2022-12-07T00:36:09;163.98;;;80.05;;
58621;SDS011;44389;51.578;5.456;2022-12-07T00:38:37;157.20;;;79.35;;
58621;SDS011;44389;51.578;5.456;2022-12-07T00:41:07;157.68;;;78.13;;
58621;SDS011;44389;51.578;5.456;2022-12-07T00:43:40;173.90;;;82.47;;
58621;SDS011;44389;51.578;5.456;2022-12-07T00:46:07;161.27;;;79.40;;
58621;SDS011;44389;51.578;5.456;2022-12-07T00:48:32;162.23;;;79.80;;
58621;SDS011;44389;51.578;5.456;2022-12-07T00:50:58;160.18;;;79.80;;
58621;SDS011;44389;51.578;5.456;2022-12-07T00:53:23;161.75;;;81.40;;
58621;SDS011;44389;51.578;5.456;2022-12-07T00:55:49;158.98;;;78.78;;
58621;SDS011;44389;51.578;5.456;2022-12-07T00:58:14;163.75;;;79.45;;
58621;SDS011;44389;51.578;5.456;2022-12-07T01:00:40;162.60;;;78.72;;
58621;SDS011;44389;51.578;5.456;2022-12-07T01:03:07;157.35;;;77.90;;
58621;SDS011;44389;51.578;5.456;2022-12-07T01:05:34;154.70;;;76.93;;
58621;SDS011;44389;51.578;5.456;2022-12-07T01:07:59;149.07;;;74.85;;
58621;SDS011;44389;51.578;5.456;2022-12-07T01:10:25;155.98;;;75.72;;
58621;SDS011;44389;51.578;5.456;2022-12-07T01:12:51;150.20;;;73.65;;
58621;SDS011;44389;51.578;5.456;2022-12-07T01:15:16;146.90;;;72.97;;
58621;SDS011;44389;51.578;5.456;2022-12-07T01:17:41;145.50;;;72.07;;
58621;SDS011;44389;51.578;5.456;2022-12-07T01:20:07;149.73;;;74.85;;
58621;SDS011;44389;51.578;5.456;2022-12-07T01:22:36;147.50;;;73.90;;
58621;SDS011;44389;51.578;5.456;2022-12-07T01:25:03;160.38;;;75.72;;
58621;SDS011;44389;51.578;5.456;2022-12-07T01:27:29;164.52;;;80.07;;
58621;SDS011;44389;51.578;5.456;2022-12-07T01:29:54;173.50;;;77.50;;
58621;SDS011;44389;51.578;5.456;2022-12-07T01:32:19;164.60;;;78.97;;
58621;SDS011;44389;51.578;5.456;2022-12-07T01:34:47;161.23;;;79.00;;
58621;SDS011;44389;51.578;5.456;2022-12-07T01:37:12;163.23;;;77.82;;
58621;SDS011;44389;51.578;5.456;2022-12-07T01:39:38;152.07;;;76.53;;
58621;SDS011;44389;51.578;5.456;2022-12-07T01:42:03;162.02;;;74.35;;
58621;SDS011;44389;51.578;5.456;2022-12-07T01:44:29;144.20;;;70.25;;
58621;SDS011;44389;51.578;5.456;2022-12-07T01:47:00;127.13;;;67.18;;
58621;SDS011;44389;51.578;5.456;2022-12-07T01:49:29;141.00;;;65.68;;
58621;SDS011;44389;51.578;5.456;2022-12-07T01:54:56;129.82;;;62.75;;
58621;SDS011;44389;51.578;5.456;2022-12-07T01:57:25;117.60;;;57.63;;
58621;SDS011;44389;51.578;5.456;2022-12-07T01:59:51;114.90;;;58.08;;
58621;SDS011;44389;51.578;5.456;2022-12-07T02:02:19;108.23;;;55.00;;
58621;SDS011;44389;51.578;5.456;2022-12-07T02:04:51;97.97;;;50.60;;
58621;SDS011;44389;51.578;5.456;2022-12-07T02:07:18;102.28;;;52.28;;
58621;SDS011;44389;51.578;5.456;2022-12-07T02:09:44;103.45;;;51.03;;
58621;SDS011;44389;51.578;5.456;2022-12-07T02:12:10;107.40;;;51.28;;
58621;SDS011;44389;51.578;5.456;2022-12-07T02:14:35;88.55;;;48.58;;
58621;SDS011;44389;51.578;5.456;2022-12-07T02:17:07;105.82;;;51.80;;
58621;SDS011;44389;51.578;5.456;2022-12-07T02:19:39;103.22;;;52.30;;
58621;SDS011;44389;51.578;5.456;2022-12-07T02:25:22;99.22;;;51.72;;
58621;SDS011;44389;51.578;5.456;2022-12-07T02:28:19;105.88;;;51.20;;
58621;SDS011;44389;51.578;5.456;2022-12-07T02:30:54;114.00;;;53.33;;
58621;SDS011;44389;51.578;5.456;2022-12-07T02:36:04;121.53;;;54.83;;
58621;SDS011;44389;51.578;5.456;2022-12-07T02:41:28;112.90;;;56.00;;
58621;SDS011;44389;51.578;5.456;2022-12-07T02:44:04;110.15;;;55.30;;
58621;SDS011;44389;51.578;5.456;2022-12-07T02:46:38;115.13;;;57.33;;
58621;SDS011;44389;51.578;5.456;2022-12-07T02:49:06;118.88;;;57.20;;
58621;SDS011;44389;51.578;5.456;2022-12-07T02:51:34;129.27;;;56.50;;
58621;SDS011;44389;51.578;5.456;2022-12-07T02:54:09;110.82;;;58.15;;
58621;SDS011;44389;51.578;5.456;2022-12-07T02:59:16;123.03;;;61.80;;
58621;SDS011;44389;51.578;5.456;2022-12-07T03:01:50;123.78;;;59.30;;
58621;SDS011;44389;51.578;5.456;2022-12-07T03:07:21;136.50;;;64.32;;
58621;SDS011;44389;51.578;5.456;2022-12-07T03:12:39;116.45;;;60.97;;
58621;SDS011;44389;51.578;5.456;2022-12-07T03:15:18;117.22;;;60.30;;
58621;SDS011;44389;51.578;5.456;2022-12-07T03:17:51;126.75;;;60.03;;
58621;SDS011;44389;51.578;5.456;2022-12-07T03:20:21;114.18;;;59.15;;
58621;SDS011;44389;51.578;5.456;2022-12-07T03:22:48;113.78;;;57.95;;
58621;SDS011;44389;51.578;5.456;2022-12-07T03:25:16;104.63;;;53.92;;
58621;SDS011;44389;51.578;5.456;2022-12-07T03:27:55;120.75;;;54.45;;
58621;SDS011;44389;51.578;5.456;2022-12-07T03:30:29;107.90;;;54.47;;
58621;SDS011;44389;51.578;5.456;2022-12-07T03:35:44;98.88;;;51.08;;
58621;SDS011;44389;51.578;5.456;2022-12-07T03:38:18;105.30;;;49.45;;
58621;SDS011;44389;51.578;5.456;2022-12-07T03:40:49;106.07;;;52.35;;
58621;SDS011;44389;51.578;5.456;2022-12-07T03:43:23;106.68;;;48.20;;
58621;SDS011;44389;51.578;5.456;2022-12-07T03:48:46;102.80;;;52.50;;
58621;SDS011;44389;51.578;5.456;2022-12-07T03:51:24;108.65;;;51.03;;
58621;SDS011;44389;51.578;5.456;2022-12-07T03:53:59;112.80;;;49.17;;
58621;SDS011;44389;51.578;5.456;2022-12-07T03:56:32;93.60;;;47.80;;
58621;SDS011;44389;51.578;5.456;2022-12-07T03:58:59;93.32;;;47.90;;
58621;SDS011;44389;51.578;5.456;2022-12-07T04:01:25;86.63;;;45.55;;
58621;SDS011;44389;51.578;5.456;2022-12-07T04:03:50;97.13;;;46.05;;
58621;SDS011;44389;51.578;5.456;2022-12-07T04:06:16;81.00;;;42.83;;
58621;SDS011;44389;51.578;5.456;2022-12-07T04:08:41;84.40;;;44.42;;
58621;SDS011;44389;51.578;5.456;2022-12-07T04:11:06;92.32;;;43.75;;
58621;SDS011;44389;51.578;5.456;2022-12-07T04:13:31;87.45;;;43.00;;
58621;SDS011;44389;51.578;5.456;2022-12-07T04:16:17;84.75;;;42.17;;
58621;SDS011;44389;51.578;5.456;2022-12-07T04:18:42;73.43;;;38.70;;
58621;SDS011;44389;51.578;5.456;2022-12-07T04:21:07;82.97;;;39.47;;
58621;SDS011;44389;51.578;5.456;2022-12-07T04:23:32;66.75;;;37.35;;
58621;SDS011;44389;51.578;5.456;2022-12-07T04:25:58;76.35;;;38.30;;
58621;SDS011;44389;51.578;5.456;2022-12-07T04:28:23;78.90;;;38.30;;
58621;SDS011;44389;51.578;5.456;2022-12-07T04:30:48;75.15;;;36.47;;
58621;SDS011;44389;51.578;5.456;2022-12-07T04:33:14;74.45;;;37.35;;
58621;SDS011;44389;51.578;5.456;2022-12-07T04:35:39;69.22;;;35.47;;
58621;SDS011;44389;51.578;5.456;2022-12-07T04:38:04;73.30;;;36.05;;
58621;SDS011;44389;51.578;5.456;2022-12-07T04:40:29;70.18;;;36.40;;
58621;SDS011;44389;51.578;5.456;2022-12-07T04:42:55;70.97;;;34.83;;
58621;SDS011;44389;51.578;5.456;2022-12-07T04:45:20;73.72;;;35.30;;
58621;SDS011;44389;51.578;5.456;2022-12-07T04:47:45;79.10;;;33.90;;
58621;SDS011;44389;51.578;5.456;2022-12-07T04:50:10;72.88;;;33.05;;
58621;SDS011;44389;51.578;5.456;2022-12-07T04:52:36;69.82;;;30.73;;
58621;SDS011;44389;51.578;5.456;2022-12-07T04:55:01;68.63;;;30.73;;
58621;SDS011;44389;51.578;5.456;2022-12-07T04:57:26;66.63;;;31.98;;
58621;SDS011;44389;51.578;5.456;2022-12-07T04:59:52;62.78;;;29.60;;
58621;SDS011;44389;51.578;5.456;2022-12-07T05:02:17;70.70;;;31.13;;
58621;SDS011;44389;51.578;5.456;2022-12-07T05:04:42;60.50;;;30.08;;
58621;SDS011;44389;51.578;5.456;2022-12-07T05:07:07;58.33;;;29.23;;
58621;SDS011;44389;51.578;5.456;2022-12-07T05:09:33;54.22;;;29.02;;
58621;SDS011;44389;51.578;5.456;2022-12-07T05:11:58;61.17;;;30.08;;
58621;SDS011;44389;51.578;5.456;2022-12-07T05:14:23;65.28;;;32.63;;
58621;SDS011;44389;51.578;5.456;2022-12-07T05:16:49;71.65;;;34.90;;
58621;SDS011;44389;51.578;5.456;2022-12-07T05:19:16;71.15;;;34.90;;
58621;SDS011;44389;51.578;5.456;2022-12-07T05:21:42;72.60;;;36.10;;
58621;SDS011;44389;51.578;5.456;2022-12-07T05:24:09;75.70;;;38.47;;
58621;SDS011;44389;51.578;5.456;2022-12-07T05:26:36;88.32;;;41.20;;
58621;SDS011;44389;51.578;5.456;2022-12-07T05:29:02;91.60;;;43.40;;
58621;SDS011;44389;51.578;5.456;2022-12-07T05:31:27;94.22;;;44.25;;
58621;SDS011;44389;51.578;5.456;2022-12-07T05:33:53;93.93;;;46.15;;
58621;SDS011;44389;51.578;5.456;2022-12-07T05:36:18;98.55;;;46.17;;
58621;SDS011;44389;51.578;5.456;2022-12-07T05:38:43;90.65;;;45.65;;
58621;SDS011;44389;51.578;5.456;2022-12-07T05:41:09;89.78;;;44.53;;
58621;SDS011;44389;51.578;5.456;2022-12-07T05:43:59;94.30;;;46.33;;
58621;SDS011;44389;51.578;5.456;2022-12-07T05:46:24;86.43;;;42.67;;
58621;SDS011;44389;51.578;5.456;2022-12-07T05:48:50;91.72;;;43.47;;
58621;SDS011;44389;51.578;5.456;2022-12-07T05:51:15;80.85;;;43.95;;
58621;SDS011;44389;51.578;5.456;2022-12-07T05:53:40;77.35;;;44.05;;
58621;SDS011;44389;51.578;5.456;2022-12-07T05:56:06;87.07;;;44.42;;
58621;SDS011;44389;51.578;5.456;2022-12-07T05:58:31;86.53;;;44.05;;
58621;SDS011;44389;51.578;5.456;2022-12-07T06:01:15;90.95;;;45.08;;
58621;SDS011;44389;51.578;5.456;2022-12-07T06:03:40;102.22;;;45.67;;
58621;SDS011;44389;51.578;5.456;2022-12-07T06:06:06;99.78;;;45.38;;
58621;SDS011;44389;51.578;5.456;2022-12-07T06:08:31;95.75;;;47.67;;
58621;SDS011;44389;51.578;5.456;2022-12-07T06:10:56;103.03;;;49.65;;
58621;SDS011;44389;51.578;5.456;2022-12-07T06:13:40;98.90;;;48.17;;
58621;SDS011;44389;51.578;5.456;2022-12-07T06:16:05;115.13;;;53.45;;
58621;SDS011;44389;51.578;5.456;2022-12-07T06:18:31;110.35;;;54.75;;
58621;SDS011;44389;51.578;5.456;2022-12-07T06:20:56;127.45;;;56.78;;
58621;SDS011;44389;51.578;5.456;2022-12-07T06:23:21;123.32;;;59.15;;
58621;SDS011;44389;51.578;5.456;2022-12-07T06:25:47;132.20;;;57.67;;
58621;SDS011;44389;51.578;5.456;2022-12-07T06:28:12;128.60;;;60.15;;
58621;SDS011;44389;51.578;5.456;2022-12-07T06:30:37;125.45;;;59.08;;
58621;SDS011;44389;51.578;5.456;2022-12-07T06:33:02;130.15;;;61.10;;
58621;SDS011;44389;51.578;5.456;2022-12-07T06:35:28;143.10;;;63.08;;
58621;SDS011;44389;51.578;5.456;2022-12-07T06:37:53;138.07;;;64.72;;
58621;SDS011;44389;51.578;5.456;2022-12-07T06:40:18;140.00;;;65.20;;
58621;SDS011;44389;51.578;5.456;2022-12-07T06:42:43;157.85;;;66.60;;
58621;SDS011;44389;51.578;5.456;2022-12-07T06:45:09;163.23;;;71.55;;
58621;SDS011;44389;51.578;5.456;2022-12-07T06:47:34;153.18;;;75.32;;
58621;SDS011;44389;51.578;5.456;2022-12-07T06:50:00;155.18;;;70.38;;
58621;SDS011;44389;51.578;5.456;2022-12-07T06:52:25;146.40;;;65.78;;
58621;SDS011;44389;51.578;5.456;2022-12-07T06:54:50;136.02;;;62.40;;
58621;SDS011;44389;51.578;5.456;2022-12-07T06:57:16;121.20;;;55.40;;
58621;SDS011;44389;51.578;5.456;2022-12-07T06:59:41;118.13;;;54.13;;
58621;SDS011;44389;51.578;5.456;2022-12-07T07:02:07;106.30;;;51.28;;
58621;SDS011;44389;51.578;5.456;2022-12-07T07:04:33;112.37;;;53.27;;
58621;SDS011;44389;51.578;5.456;2022-12-07T07:06:58;105.88;;;51.28;;
58621;SDS011;44389;51.578;5.456;2022-12-07T07:09:24;113.18;;;53.72;;
58621;SDS011;44389;51.578;5.456;2022-12-07T07:11:49;110.25;;;54.15;;
58621;SDS011;44389;51.578;5.456;2022-12-07T07:14:14;120.43;;;55.15;;
58621;SDS011;44389;51.578;5.456;2022-12-07T07:16:43;117.28;;;58.90;;
58621;SDS011;44389;51.578;5.456;2022-12-07T07:19:09;116.97;;;58.38;;
58621;SDS011;44389;51.578;5.456;2022-12-07T07:21:34;115.97;;;58.58;;
58621;SDS011;44389;51.578;5.456;2022-12-07T07:23:59;113.20;;;56.90;;
58621;SDS011;44389;51.578;5.456;2022-12-07T07:26:25;117.60;;;56.70;;
58621;SDS011;44389;51.578;5.456;2022-12-07T07:28:50;115.22;;;58.75;;
58621;SDS011;44389;51.578;5.456;2022-12-07T07:31:15;117.70;;;59.47;;
58621;SDS011;44389;51.578;5.456;2022-12-07T07:33:41;120.38;;;60.03;;
58621;SDS011;44389;51.578;5.456;2022-12-07T07:36:06;134.07;;;61.85;;
58621;SDS011;44389;51.578;5.456;2022-12-07T07:38:31;134.25;;;61.00;;
58621;SDS011;44389;51.578;5.456;2022-12-07T07:40:57;118.68;;;59.15;;
58621;SDS011;44389;51.578;5.456;2022-12-07T07:43:22;120.25;;;59.42;;
58621;SDS011;44389;51.578;5.456;2022-12-07T07:45:47;124.80;;;58.22;;
58621;SDS011;44389;51.578;5.456;2022-12-07T07:48:13;127.53;;;58.83;;
58621;SDS011;44389;51.578;5.456;2022-12-07T07:50:38;123.72;;;57.70;;
58621;SDS011;44389;51.578;5.456;2022-12-07T07:53:03;112.90;;;57.88;;
58621;SDS011;44389;51.578;5.456;2022-12-07T07:55:28;117.53;;;60.13;;
58621;SDS011;44389;51.578;5.456;2022-12-07T07:57:54;95.82;;;53.92;;
58621;SDS011;44389;51.578;5.456;2022-12-07T08:00:19;97.80;;;50.33;;
58621;SDS011;44389;51.578;5.456;2022-12-07T08:02:44;91.20;;;50.22;;
58621;SDS011;44389;51.578;5.456;2022-12-07T08:05:11;88.35;;;45.15;;
58621;SDS011;44389;51.578;5.456;2022-12-07T08:07:36;84.07;;;45.75;;
58621;SDS011;44389;51.578;5.456;2022-12-07T08:10:02;89.47;;;44.97;;
58621;SDS011;44389;51.578;5.456;2022-12-07T08:12:28;87.55;;;45.90;;
58621;SDS011;44389;51.578;5.456;2022-12-07T08:14:53;106.57;;;47.30;;
58621;SDS011;44389;51.578;5.456;2022-12-07T08:17:18;97.78;;;48.05;;
58621;SDS011;44389;51.578;5.456;2022-12-07T08:19:44;99.18;;;49.33;;
58621;SDS011;44389;51.578;5.456;2022-12-07T08:22:09;100.93;;;51.33;;
58621;SDS011;44389;51.578;5.456;2022-12-07T08:24:35;101.32;;;54.63;;
58621;SDS011;44389;51.578;5.456;2022-12-07T08:27:01;104.03;;;55.75;;
58621;SDS011;44389;51.578;5.456;2022-12-07T08:29:26;112.43;;;58.50;;
58621;SDS011;44389;51.578;5.456;2022-12-07T08:31:51;124.53;;;60.88;;
58621;SDS011;44389;51.578;5.456;2022-12-07T08:34:17;109.18;;;56.85;;
58621;SDS011;44389;51.578;5.456;2022-12-07T08:36:42;99.18;;;55.15;;
58621;SDS011;44389;51.578;5.456;2022-12-07T08:39:08;101.22;;;51.17;;
58621;SDS011;44389;51.578;5.456;2022-12-07T08:41:33;89.90;;;50.20;;
58621;SDS011;44389;51.578;5.456;2022-12-07T08:43:59;93.65;;;48.35;;
58621;SDS011;44389;51.578;5.456;2022-12-07T08:46:25;80.18;;;45.10;;
58621;SDS011;44389;51.578;5.456;2022-12-07T08:51:41;74.47;;;38.88;;
58621;SDS011;44389;51.578;5.456;2022-12-07T08:54:09;86.38;;;39.15;;
58621;SDS011;44389;51.578;5.456;2022-12-07T08:56:38;67.35;;;35.70;;
58621;SDS011;44389;51.578;5.456;2022-12-07T08:59:04;69.70;;;36.05;;
58621;SDS011;44389;51.578;5.456;2022-12-07T09:01:30;72.80;;;34.50;;
58621;SDS011;44389;51.578;5.456;2022-12-07T09:03:55;74.03;;;36.03;;
58621;SDS011;44389;51.578;5.456;2022-12-07T09:06:20;64.07;;;33.25;;
58621;SDS011;44389;51.578;5.456;2022-12-07T09:08:47;67.32;;;33.72;;
58621;SDS011;44389;51.578;5.456;2022-12-07T09:11:14;65.28;;;32.13;;
58621;SDS011;44389;51.578;5.456;2022-12-07T09:13:39;67.22;;;33.63;;
58621;SDS011;44389;51.578;5.456;2022-12-07T09:16:05;64.80;;;31.98;;
58621;SDS011;44389;51.578;5.456;2022-12-07T09:18:30;62.03;;;31.83;;
58621;SDS011;44389;51.578;5.456;2022-12-07T09:20:56;61.17;;;31.45;;
58621;SDS011;44389;51.578;5.456;2022-12-07T09:23:21;70.72;;;29.45;;
58621;SDS011;44389;51.578;5.456;2022-12-07T09:25:47;56.60;;;27.98;;
58621;SDS011;44389;51.578;5.456;2022-12-07T09:28:12;56.90;;;28.95;;
58621;SDS011;44389;51.578;5.456;2022-12-07T09:30:37;55.47;;;28.42;;
58621;SDS011;44389;51.578;5.456;2022-12-07T09:33:03;59.40;;;27.30;;
58621;SDS011;44389;51.578;5.456;2022-12-07T09:35:28;59.20;;;27.60;;
58621;SDS011;44389;51.578;5.456;2022-12-07T09:37:53;57.53;;;27.30;;
58621;SDS011;44389;51.578;5.456;2022-12-07T09:40:19;57.50;;;28.45;;
58621;SDS011;44389;51.578;5.456;2022-12-07T09:42:48;55.13;;;28.17;;
58621;SDS011;44389;51.578;5.456;2022-12-07T09:45:34;54.83;;;27.45;;
58621;SDS011;44389;51.578;5.456;2022-12-07T09:48:04;58.03;;;28.55;;
58621;SDS011;44389;51.578;5.456;2022-12-07T09:50:31;65.82;;;28.33;;
58621;SDS011;44389;51.578;5.456;2022-12-07T09:53:07;79.15;;;32.63;;
58621;SDS011;44389;51.578;5.456;2022-12-07T09:55:37;66.93;;;26.48;;
58621;SDS011;44389;51.578;5.456;2022-12-07T09:58:03;52.25;;;27.92;;
58621;SDS011;44389;51.578;5.456;2022-12-07T10:00:29;54.63;;;26.90;;
58621;SDS011;44389;51.578;5.456;2022-12-07T10:05:30;61.30;;;27.95;;
58621;SDS011;44389;51.578;5.456;2022-12-07T10:08:01;52.47;;;23.52;;
58621;SDS011;44389;51.578;5.456;2022-12-07T10:10:29;58.88;;;22.50;;
58621;SDS011;44389;51.578;5.456;2022-12-07T10:12:57;43.95;;;18.35;;
58621;SDS011;44389;51.578;5.456;2022-12-07T10:21:00;41.72;;;17.13;;
58621;SDS011;44389;51.578;5.456;2022-12-07T10:23:28;32.60;;;14.10;;
58621;SDS011;44389;51.578;5.456;2022-12-07T10:25:53;38.58;;;14.80;;
58621;SDS011;44389;51.578;5.456;2022-12-07T10:28:20;32.83;;;12.48;;
58621;SDS011;44389;51.578;5.456;2022-12-07T10:33:32;67.60;;;34.63;;
58621;SDS011;44389;51.578;5.456;2022-12-07T10:36:00;47.45;;;19.67;;
58621;SDS011;44389;51.578;5.456;2022-12-07T10:38:43;48.55;;;24.15;;
58621;SDS011;44389;51.578;5.456;2022-12-07T10:41:28;45.50;;;22.00;;
58621;SDS011;44389;51.578;5.456;2022-12-07T10:43:54;44.38;;;19.98;;
58621;SDS011;44389;51.578;5.456;2022-12-07T10:49:21;34.78;;;15.80;;
58621;SDS011;44389;51.578;5.456;2022-12-07T11:02:40;36.33;;;15.95;;
58621;SDS011;44389;51.578;5.456;2022-12-07T11:08:03;44.00;;;16.60;;
58621;SDS011;44389;51.578;5.456;2022-12-07T11:13:22;39.30;;;15.27;;
58621;SDS011;44389;51.578;5.456;2022-12-07T11:16:16;35.97;;;14.38;;
58621;SDS011;44389;51.578;5.456;2022-12-07T11:21:48;41.35;;;15.25;;
58621;SDS011;44389;51.578;5.456;2022-12-07T11:24:46;39.63;;;14.75;;
58621;SDS011;44389;51.578;5.456;2022-12-07T11:33:04;48.08;;;16.15;;
58621;SDS011;44389;51.578;5.456;2022-12-07T11:36:02;36.20;;;13.02;;
58621;SDS011;44389;51.578;5.456;2022-12-07T11:41:12;35.78;;;13.60;;
58621;SDS011;44389;51.578;5.456;2022-12-07T11:43:56;38.15;;;12.88;;
58621;SDS011;44389;51.578;5.456;2022-12-07T11:46:27;30.45;;;13.45;;
58621;SDS011;44389;51.578;5.456;2022-12-07T11:49:13;36.40;;;12.00;;
58621;SDS011;44389;51.578;5.456;2022-12-07T11:51:44;36.67;;;13.75;;
58621;SDS011;44389;51.578;5.456;2022-12-07T11:54:23;39.30;;;14.40;;
58621;SDS011;44389;51.578;5.456;2022-12-07T11:56:55;54.45;;;19.77;;
58621;SDS011;44389;51.578;5.456;2022-12-07T11:59:31;58.38;;;20.75;;
58621;SDS011;44389;51.578;5.456;2022-12-07T12:02:11;47.58;;;20.33;;
58621;SDS011;44389;51.578;5.456;2022-12-07T12:07:10;43.03;;;15.20;;
58621;SDS011;44389;51.578;5.456;2022-12-07T12:09:56;43.53;;;14.10;;
58621;SDS011;44389;51.578;5.456;2022-12-07T12:12:34;33.25;;;12.98;;
58621;SDS011;44389;51.578;5.456;2022-12-07T12:18:18;32.55;;;11.93;;
58621;SDS011;44389;51.578;5.456;2022-12-07T12:20:49;35.83;;;10.43;;
58621;SDS011;44389;51.578;5.456;2022-12-07T12:23:25;27.45;;;10.20;;
58621;SDS011;44389;51.578;5.456;2022-12-07T12:26:01;27.52;;;9.52;;
58621;SDS011;44389;51.578;5.456;2022-12-07T12:28:30;26.70;;;8.40;;
58621;SDS011;44389;51.578;5.456;2022-12-07T12:31:42;29.23;;;8.48;;
58621;SDS011;44389;51.578;5.456;2022-12-07T12:33:52;22.38;;;8.65;;
58621;SDS011;44389;51.578;5.456;2022-12-07T12:44:02;35.67;;;8.55;;
58621;SDS011;44389;51.578;5.456;2022-12-07T12:46:35;27.48;;;8.80;;
58621;SDS011;44389;51.578;5.456;2022-12-07T12:51:45;25.90;;;7.68;;
58621;SDS011;44389;51.578;5.456;2022-12-07T12:56:46;23.93;;;7.07;;
58621;SDS011;44389;51.578;5.456;2022-12-07T12:59:23;28.00;;;6.18;;
58621;SDS011;44389;51.578;5.456;2022-12-07T13:04:53;22.75;;;5.90;;
58621;SDS011;44389;51.578;5.456;2022-12-07T13:13:03;22.27;;;6.03;;
58621;SDS011;44389;51.578;5.456;2022-12-07T13:15:40;15.02;;;5.22;;
58621;SDS011;44389;51.578;5.456;2022-12-07T13:21:02;29.88;;;6.82;;
58621;SDS011;44389;51.578;5.456;2022-12-07T13:23:56;22.15;;;6.03;;
58621;SDS011;44389;51.578;5.456;2022-12-07T13:29:14;23.90;;;7.20;;
58621;SDS011;44389;51.578;5.456;2022-12-07T13:31:43;22.77;;;7.20;;
58621;SDS011;44389;51.578;5.456;2022-12-07T13:37:04;21.23;;;7.15;;
58621;SDS011;44389;51.578;5.456;2022-12-07T13:39:49;31.15;;;7.60;;
58621;SDS011;44389;51.578;5.456;2022-12-07T13:42:27;23.70;;;7.57;;
58621;SDS011;44389;51.578;5.456;2022-12-07T13:44:54;23.35;;;6.75;;
58621;SDS011;44389;51.578;5.456;2022-12-07T13:47:28;18.58;;;7.03;;
58621;SDS011;44389;51.578;5.456;2022-12-07T13:49:56;25.48;;;7.40;;
58621;SDS011;44389;51.578;5.456;2022-12-07T13:52:23;24.20;;;8.07;;
58621;SDS011;44389;51.578;5.456;2022-12-07T13:57:30;29.50;;;8.35;;
58621;SDS011;44389;51.578;5.456;2022-12-07T14:00:02;29.55;;;9.15;;
58621;SDS011;44389;51.578;5.456;2022-12-07T14:02:31;28.08;;;7.93;;
58621;SDS011;44389;51.578;5.456;2022-12-07T14:07:32;24.58;;;7.82;;
58621;SDS011;44389;51.578;5.456;2022-12-07T14:10:00;26.33;;;9.00;;
58621;SDS011;44389;51.578;5.456;2022-12-07T14:12:27;27.90;;;10.00;;
58621;SDS011;44389;51.578;5.456;2022-12-07T14:14:54;24.73;;;9.23;;
58621;SDS011;44389;51.578;5.456;2022-12-07T14:17:22;23.23;;;8.67;;
58621;SDS011;44389;51.578;5.456;2022-12-07T14:22:19;24.27;;;8.85;;
58621;SDS011;44389;51.578;5.456;2022-12-07T14:24:49;20.48;;;8.18;;
58621;SDS011;44389;51.578;5.456;2022-12-07T14:27:22;22.50;;;8.02;;
58621;SDS011;44389;51.578;5.456;2022-12-07T14:29:55;18.80;;;7.68;;
58621;SDS011;44389;51.578;5.456;2022-12-07T14:32:22;17.42;;;6.70;;
58621;SDS011;44389;51.578;5.456;2022-12-07T14:37:23;16.25;;;5.25;;
58621;SDS011;44389;51.578;5.456;2022-12-07T14:39:49;14.15;;;5.22;;
58621;SDS011;44389;51.578;5.456;2022-12-07T14:42:15;22.00;;;5.40;;
58621;SDS011;44389;51.578;5.456;2022-12-07T14:44:40;15.25;;;5.95;;
58621;SDS011;44389;51.578;5.456;2022-12-07T14:47:08;23.33;;;5.60;;
58621;SDS011;44389;51.578;5.456;2022-12-07T14:49:34;23.45;;;7.35;;
58621;SDS011;44389;51.578;5.456;2022-12-07T14:52:00;17.90;;;6.47;;
58621;SDS011;44389;51.578;5.456;2022-12-07T14:54:25;19.90;;;6.95;;
58621;SDS011;44389;51.578;5.456;2022-12-07T14:56:55;18.92;;;6.60;;
58621;SDS011;44389;51.578;5.456;2022-12-07T14:59:20;19.95;;;7.50;;
58621;SDS011;44389;51.578;5.456;2022-12-07T15:01:46;20.70;;;8.05;;
58621;SDS011;44389;51.578;5.456;2022-12-07T15:04:11;25.48;;;8.57;;
58621;SDS011;44389;51.578;5.456;2022-12-07T15:06:37;23.38;;;9.55;;
58621;SDS011;44389;51.578;5.456;2022-12-07T15:09:02;24.38;;;9.65;;
58621;SDS011;44389;51.578;5.456;2022-12-07T15:11:28;20.58;;;10.00;;
58621;SDS011;44389;51.578;5.456;2022-12-07T15:13:53;24.65;;;10.98;;
58621;SDS011;44389;51.578;5.456;2022-12-07T15:16:34;27.88;;;11.90;;
58621;SDS011;44389;51.578;5.456;2022-12-07T15:19:01;24.90;;;11.38;;
58621;SDS011;44389;51.578;5.456;2022-12-07T15:21:27;29.55;;;12.15;;
58621;SDS011;44389;51.578;5.456;2022-12-07T15:23:52;32.65;;;12.70;;
58621;SDS011;44389;51.578;5.456;2022-12-07T15:26:18;24.27;;;12.23;;
58621;SDS011;44389;51.578;5.456;2022-12-07T15:28:43;28.27;;;12.07;;
58621;SDS011;44389;51.578;5.456;2022-12-07T15:31:12;27.50;;;13.93;;
58621;SDS011;44389;51.578;5.456;2022-12-07T15:33:38;31.75;;;13.32;;
58621;SDS011;44389;51.578;5.456;2022-12-07T15:36:04;28.83;;;14.10;;
58621;SDS011;44389;51.578;5.456;2022-12-07T15:38:29;23.25;;;13.05;;
58621;SDS011;44389;51.578;5.456;2022-12-07T15:40:55;27.73;;;14.20;;
58621;SDS011;44389;51.578;5.456;2022-12-07T15:43:21;33.58;;;16.95;;
58621;SDS011;44389;51.578;5.456;2022-12-07T15:46:04;38.85;;;19.67;;
58621;SDS011;44389;51.578;5.456;2022-12-07T15:48:30;35.45;;;18.63;;
58621;SDS011;44389;51.578;5.456;2022-12-07T15:51:05;36.75;;;21.10;;
58621;SDS011;44389;51.578;5.456;2022-12-07T15:53:31;38.95;;;21.92;;
58621;SDS011;44389;51.578;5.456;2022-12-07T15:55:56;36.45;;;20.52;;
58621;SDS011;44389;51.578;5.456;2022-12-07T15:58:22;36.97;;;20.13;;
58621;SDS011;44389;51.578;5.456;2022-12-07T16:00:47;41.20;;;21.40;;
58621;SDS011;44389;51.578;5.456;2022-12-07T16:03:13;50.25;;;22.52;;
58621;SDS011;44389;51.578;5.456;2022-12-07T16:05:38;55.65;;;23.27;;
58621;SDS011;44389;51.578;5.456;2022-12-07T16:08:03;60.65;;;28.75;;
58621;SDS011;44389;51.578;5.456;2022-12-07T16:10:29;51.08;;;26.75;;
58621;SDS011;44389;51.578;5.456;2022-12-07T16:12:54;44.88;;;22.80;;
58621;SDS011;44389;51.578;5.456;2022-12-07T16:15:20;44.60;;;22.92;;
58621;SDS011;44389;51.578;5.456;2022-12-07T16:17:45;40.38;;;23.15;;
58621;SDS011;44389;51.578;5.456;2022-12-07T16:20:11;44.92;;;23.35;;
58621;SDS011;44389;51.578;5.456;2022-12-07T16:22:36;48.10;;;23.25;;